Danville, Vermont
Current Conditions -  °F | °C
As of 12:05 PM on Tuesday 27 Jan 2015 (Local Time) from KMVL Reporting Station
Light Snow Light Snow  
Wind Chill: -8°   Ceiling: 1800
Heat Index:   Visibility: 1mi
Dew Point:   Wind: 14mph
Humidity: 73%   Direction: 360°N
Pressure: 29.86"   Gusts: 21mph
Location:  44.41°N, 72.14°W
Report Text: KMVL 271705Z AUTO 36012G18KT 1SM -SN VV018 M13/M17 A2986 RMK AO2 P0000 T11331172 TSNO
Loading
Personal Weather Stations






























Interactive Weather Map New forecast layout! Learn more

10-Day Weather Forecast

Advertisements
Track Severe Weather on mobile